Time;durP1;ratioP1;P1;durP2;ratioP2;P2;SDS_P1;SDS_P2;PMS_P1;PMS_P2;Temp;Humidity;BMP_temperature;BMP_pressure;BME280_temperature;BME280_humidity;BME280_pressure;Samples;Min_cycle;Max_cycle;Signal;HPM_P1;HPM_P2
2022/09/14 00:00:53;;;;;;;2.25;1.00;;;13.10;99.90;;;;;;5095324;28;20040;-75
2022/09/14 00:03:19;;;;;;;3.53;1.27;;;13.10;99.90;;;;;;5109387;28;20122;-75
2022/09/14 00:05:45;;;;;;;2.05;1.10;;;13.00;99.90;;;;;;5115299;28;20503;-75
2022/09/14 00:08:11;;;;;;;3.45;1.10;;;12.80;99.90;;;;;;5113413;28;20043;-75
2022/09/14 00:10:45;;;;;;;5.50;1.23;;;12.80;99.90;;;;;;5115609;28;20035;-75
2022/09/14 00:13:13;;;;;;;3.13;1.30;;;12.80;99.90;;;;;;5101085;28;20044;-75
2022/09/14 00:15:41;;;;;;;4.70;1.10;;;12.90;99.90;;;;;;5105031;28;20115;-75
2022/09/14 00:18:09;;;;;;;4.32;1.20;;;12.90;99.90;;;;;;5110802;28;20036;-75
2022/09/14 00:20:35;;;;;;;2.03;0.98;;;13.00;99.90;;;;;;5115205;28;20479;-74
2022/09/14 00:23:01;;;;;;;3.05;1.10;;;13.00;99.90;;;;;;5114255;28;20042;-75
2022/09/14 00:25:27;;;;;;;2.28;1.10;;;13.00;99.90;;;;;;5115270;28;20123;-75
2022/09/14 00:27:54;;;;;;;4.80;1.25;;;13.00;99.90;;;;;;5115143;28;20039;-74
2022/09/14 00:30:22;;;;;;;2.67;1.10;;;13.00;99.90;;;;;;5095243;28;20049;-74
2022/09/14 00:32:47;;;;;;;2.00;1.00;;;13.00;99.90;;;;;;5114702;28;20448;-74
2022/09/14 00:35:13;;;;;;;4.15;1.27;;;13.10;99.90;;;;;;5100136;28;20075;-75
2022/09/14 00:37:39;;;;;;;6.65;1.25;;;13.10;99.90;;;;;;5094698;28;20480;-75
2022/09/14 00:40:05;;;;;;;5.88;1.33;;;13.00;99.90;;;;;;5113756;28;20475;-75
2022/09/14 00:42:31;;;;;;;3.45;1.50;;;13.00;99.90;;;;;;5113671;28;20046;-74
2022/09/14 00:45:02;;;;;;;3.85;1.52;;;12.90;99.90;;;;;;5114723;28;20043;-75
2022/09/14 00:47:29;;;;;;;2.80;1.30;;;12.90;99.90;;;;;;5137288;27;20069;-74
2022/09/14 00:49:55;;;;;;;2.80;1.20;;;12.90;99.90;;;;;;5094216;28;20044;-74
2022/09/14 00:52:31;;;;;;;4.75;1.50;;;12.90;99.90;;;;;;5100132;28;20044;-74
2022/09/14 00:55:00;;;;;;;5.50;1.65;;;12.90;99.90;;;;;;5114733;28;20434;-74
2022/09/14 00:57:28;;;;;;;1.80;1.40;;;12.80;99.90;;;;;;5114570;27;20441;-75
2022/09/14 00:59:55;;;;;;;3.45;1.33;;;12.80;99.90;;;;;;5107646;28;20032;-74
2022/09/14 01:02:22;;;;;;;4.00;1.52;;;12.80;99.90;;;;;;5093533;28;20040;-74
2022/09/14 01:04:48;;;;;;;4.25;1.58;;;12.90;99.90;;;;;;5092775;28;20060;-73
2022/09/14 01:07:21;;;;;;;3.28;1.92;;;12.90;99.90;;;;;;5093932;28;20032;-74
2022/09/14 01:10:08;;;;;;;4.93;1.50;;;12.90;99.90;;;;;;5093898;28;20047;-74
2022/09/14 01:13:02;;;;;;;3.25;1.55;;;12.90;99.90;;;;;;5093434;28;20488;-74
2022/09/14 01:15:59;;;;;;;3.28;1.75;;;13.00;99.90;;;;;;5104739;28;20040;-74
2022/09/14 01:18:43;;;;;;;3.78;1.83;;;12.90;99.90;;;;;;5071307;28;20052;-74
2022/09/14 01:21:13;;;;;;;2.75;1.80;;;12.70;99.90;;;;;;5093601;28;20054;-75
2022/09/14 01:23:47;;;;;;;6.32;1.90;;;12.70;99.90;;;;;;5098337;28;20036;-75
2022/09/14 01:26:54;;;;;;;3.80;1.77;;;12.70;99.90;;;;;;5127413;27;20043;-74
2022/09/14 01:29:28;;;;;;;5.53;1.92;;;12.80;99.90;;;;;;5114240;27;20035;-74
2022/09/14 01:32:11;;;;;;;3.85;1.90;;;12.80;99.90;;;;;;5111866;28;20039;-74
2022/09/14 01:34:39;;;;;;;;;;;12.80;99.90;;;;;;5112578;28;20040;-75
2022/09/14 01:37:20;;;;;;;4.60;1.90;;;12.80;99.90;;;;;;5112822;28;19916;-74
2022/09/14 01:39:50;;;;;;;5.28;2.25;;;12.80;99.90;;;;;;5113777;28;20051;-74
2022/09/14 01:42:19;;;;;;;5.07;2.10;;;12.80;99.90;;;;;;5112997;28;20047;-74
2022/09/14 01:44:49;;;;;;;3.83;1.85;;;12.80;99.90;;;;;;5113252;28;20089;-74
2022/09/14 01:47:27;;;;;;;4.60;2.25;;;12.80;99.90;;;;;;5111667;28;20047;-74
2022/09/14 01:49:58;;;;;;;5.13;2.10;;;12.70;99.90;;;;;;5111114;28;20032;-74
2022/09/14 01:52:48;;;;;;;5.85;2.20;;;12.60;99.90;;;;;;5092542;28;20055;-73
2022/09/14 01:55:21;;;;;;;4.65;2.03;;;12.60;99.90;;;;;;5102866;28;20509;-73
2022/09/14 01:57:55;;;;;;;3.55;1.70;;;12.60;99.90;;;;;;5125006;27;20035;-73
2022/09/14 02:00:21;;;;;;;4.63;1.98;;;12.70;99.90;;;;;;5112620;28;20043;-73
2022/09/14 02:02:54;;;;;;;3.03;1.85;;;12.60;99.90;;;;;;5111627;28;20039;-73
2022/09/14 02:05:38;;;;;;;4.72;2.10;;;12.60;99.90;;;;;;5111302;28;20051;-74
2022/09/14 02:08:03;;;;;;;4.10;2.10;;;12.60;99.90;;;;;;5110415;28;20051;-74
2022/09/14 02:10:29;;;;;;;6.82;2.30;;;12.60;99.90;;;;;;5110018;28;20036;-74
2022/09/14 02:12:55;;;;;;;4.13;1.70;;;12.60;99.90;;;;;;5103019;28;20040;-74
2022/09/14 02:15:23;;;;;;;4.60;2.20;;;12.50;99.90;;;;;;5112455;28;20403;-73
2022/09/14 02:17:48;;;;;;;5.10;2.85;;;12.50;99.90;;;;;;5110822;28;20044;-73
2022/09/14 02:20:34;;;;;;;4.60;1.85;;;12.50;99.90;;;;;;5102505;28;20093;-73
2022/09/14 02:23:00;;;;;;;5.90;2.10;;;12.50;99.90;;;;;;5100693;28;20036;-73
2022/09/14 02:25:26;;;;;;;3.97;2.15;;;12.50;99.90;;;;;;5102879;28;20487;-74
2022/09/14 02:27:52;;;;;;;6.28;2.35;;;12.50;99.90;;;;;;5110987;28;20040;-73
2022/09/14 02:30:19;;;;;;;5.65;2.40;;;12.40;99.90;;;;;;5109157;28;20042;-73
2022/09/14 02:33:13;;;;;;;5.45;2.13;;;12.50;99.90;;;;;;5107324;28;20036;-74
2022/09/14 02:35:45;;;;;;;6.22;2.30;;;12.50;99.90;;;;;;5097269;28;20114;-74
2022/09/14 02:38:14;;;;;;;3.15;1.60;;;12.60;99.90;;;;;;5108892;28;20058;-74
2022/09/14 02:40:48;;;;;;;3.90;1.83;;;12.60;99.90;;;;;;5107726;28;20031;-73
2022/09/14 02:43:27;;;;;;;3.30;1.77;;;12.70;99.90;;;;;;5111376;28;20042;-73
2022/09/14 02:46:22;;;;;;;4.22;2.00;;;12.70;99.90;;;;;;5104435;28;20059;-74
2022/09/14 02:49:18;;;;;;;6.00;2.00;;;12.70;99.90;;;;;;5105713;28;20119;-73
2022/09/14 02:52:08;;;;;;;3.65;1.60;;;12.80;99.90;;;;;;5105173;28;20039;-74
2022/09/14 02:54:47;;;;;;;3.88;1.90;;;12.80;99.90;;;;;;5115388;27;20452;-74
2022/09/14 02:57:13;;;;;;;3.13;1.73;;;12.80;99.90;;;;;;5105591;28;20423;-74
2022/09/14 02:59:39;;;;;;;4.28;2.30;;;12.80;99.90;;;;;;5102593;27;20062;-74
2022/09/14 03:02:04;;;;;;;5.40;2.33;;;12.70;99.90;;;;;;5111860;28;20089;-73
2022/09/14 03:04:30;;;;;;;4.20;2.13;;;12.70;99.90;;;;;;5115533;28;20035;-74
2022/09/14 03:06:55;;;;;;;3.83;2.20;;;12.70;99.90;;;;;;5115721;28;20527;-74
2022/09/14 03:09:21;;;;;;;5.28;2.05;;;12.70;99.90;;;;;;5086261;28;20096;-73
2022/09/14 03:11:46;;;;;;;4.20;1.90;;;12.70;99.90;;;;;;5098188;28;20411;-74
2022/09/14 03:14:12;;;;;;;4.93;2.30;;;12.70;99.90;;;;;;5125728;27;20442;-74
2022/09/14 03:16:38;;;;;;;5.88;2.08;;;12.80;99.90;;;;;;5107757;28;20115;-74
2022/09/14 03:19:05;;;;;;;6.80;2.33;;;12.80;99.90;;;;;;5111941;28;20035;-74
2022/09/14 03:21:31;;;;;;;4.20;2.10;;;12.90;99.90;;;;;;5116383;28;20092;-74
2022/09/14 03:23:57;;;;;;;5.00;2.38;;;12.90;99.90;;;;;;5108893;28;20040;-74
2022/09/14 03:26:24;;;;;;;4.43;2.25;;;12.90;99.90;;;;;;5107075;27;20046;-73
2022/09/14 03:28:55;;;;;;;5.55;1.88;;;13.00;99.90;;;;;;5123244;27;20047;-74
2022/09/14 03:31:21;;;;;;;4.82;2.30;;;13.00;99.90;;;;;;5108515;28;20031;-74
2022/09/14 03:33:51;;;;;;;3.03;2.00;;;13.00;99.90;;;;;;5113000;28;20544;-74
2022/09/14 03:36:18;;;;;;;4.57;2.08;;;13.00;99.90;;;;;;5111028;28;20115;-74
2022/09/14 03:38:45;;;;;;;5.43;2.10;;;13.00;99.90;;;;;;5115692;27;20498;-74
2022/09/14 03:41:12;;;;;;;3.97;2.30;;;13.10;99.90;;;;;;5113219;28;20369;-74
2022/09/14 03:43:38;;;;;;;3.65;2.10;;;13.10;99.90;;;;;;5115067;28;20574;-74
2022/09/14 03:46:15;;;;;;;5.32;2.38;;;13.10;99.90;;;;;;5109658;28;20114;-74
2022/09/14 03:48:41;;;;;;;3.38;2.00;;;13.10;99.90;;;;;;5110268;28;20130;-74
2022/09/14 03:51:08;;;;;;;4.07;2.08;;;13.00;99.90;;;;;;5097432;28;20110;-74
2022/09/14 03:53:35;;;;;;;3.30;1.83;;;13.10;99.90;;;;;;5103730;27;20035;-74
2022/09/14 03:56:09;;;;;;;3.08;2.10;;;13.10;99.90;;;;;;5111183;28;20126;-73
2022/09/14 03:58:35;;;;;;;6.85;2.38;;;13.20;99.90;;;;;;5095659;28;20036;-73
2022/09/14 04:01:09;;;;;;;6.35;2.40;;;13.10;99.90;;;;;;5102608;28;20111;-73
2022/09/14 04:03:35;;;;;;;5.32;2.38;;;13.20;99.90;;;;;;5114538;28;20036;-73
2022/09/14 04:06:04;;;;;;;5.32;2.00;;;13.10;99.90;;;;;;5108874;27;20059;-73
2022/09/14 04:08:33;;;;;;;4.25;2.00;;;13.10;99.90;;;;;;5097785;28;20036;-73
2022/09/14 04:10:59;;;;;;;4.82;2.10;;;13.10;99.90;;;;;;5106138;28;20032;-74
2022/09/14 04:13:25;;;;;;;8.60;2.35;;;13.20;99.90;;;;;;5094979;28;20446;-73
2022/09/14 04:15:58;;;;;;;4.32;1.80;;;13.10;99.90;;;;;;5102313;28;20028;-74
2022/09/14 04:18:24;;;;;;;6.63;2.22;;;13.20;99.90;;;;;;5104231;28;20032;-74
2022/09/14 04:20:58;;;;;;;6.32;2.20;;;13.20;99.90;;;;;;5111843;28;20127;-74
2022/09/14 04:23:24;;;;;;;4.95;2.53;;;13.30;99.90;;;;;;5112393;28;20046;-74
2022/09/14 04:25:50;;;;;;;4.82;2.17;;;13.30;99.90;;;;;;5111166;28;20430;-74
2022/09/14 04:28:16;;;;;;;5.78;2.00;;;13.20;99.90;;;;;;5114964;27;20034;-74
2022/09/14 04:30:42;;;;;;;3.80;1.98;;;13.30;99.90;;;;;;5114915;28;20039;-74
2022/09/14 04:33:07;;;;;;;5.03;2.30;;;13.20;99.90;;;;;;5110660;28;20049;-73
2022/09/14 04:35:33;;;;;;;5.85;2.30;;;13.20;99.90;;;;;;5100186;28;20065;-73
2022/09/14 04:37:58;;;;;;;5.70;2.13;;;13.30;99.90;;;;;;5102486;28;20564;-74
2022/09/14 04:40:24;;;;;;;4.03;1.90;;;13.30;99.90;;;;;;5105470;27;20050;-73
2022/09/14 04:42:50;;;;;;;5.95;2.03;;;13.30;99.90;;;;;;5118889;27;20046;-73
2022/09/14 04:45:15;;;;;;;3.70;2.28;;;13.30;99.90;;;;;;5094888;28;20127;-74
2022/09/14 04:47:41;;;;;;;6.13;2.20;;;13.30;99.90;;;;;;5096997;28;20040;-73
2022/09/14 04:50:07;;;;;;;7.63;2.40;;;13.30;99.90;;;;;;5103550;28;20535;-73
2022/09/14 04:52:32;;;;;;;6.10;2.30;;;13.30;99.90;;;;;;5110141;28;20457;-73
2022/09/14 04:54:58;;;;;;;6.03;2.20;;;13.30;99.90;;;;;;5103542;28;20036;-73
2022/09/14 04:57:23;;;;;;;6.78;2.58;;;13.30;99.90;;;;;;5112430;27;20071;-73
2022/09/14 04:59:49;;;;;;;6.43;2.42;;;13.40;99.90;;;;;;5114339;28;20069;-73
2022/09/14 05:02:15;;;;;;;7.05;2.53;;;13.30;99.90;;;;;;5113448;28;20392;-73
2022/09/14 05:04:41;;;;;;;4.72;2.10;;;13.40;99.90;;;;;;5114389;28;20056;-73
2022/09/14 05:07:06;;;;;;;5.38;2.35;;;13.40;99.90;;;;;;5112255;28;20048;-73
2022/09/14 05:09:32;;;;;;;7.47;2.50;;;13.40;99.90;;;;;;5095258;28;20047;-74
2022/09/14 05:11:58;;;;;;;5.95;2.80;;;13.40;99.90;;;;;;5110377;27;20085;-74
2022/09/14 05:14:23;;;;;;;5.93;2.28;;;13.40;99.90;;;;;;5114161;28;20047;-73
2022/09/14 05:16:49;;;;;;;6.38;2.22;;;13.40;99.90;;;;;;5113540;28;20559;-73
2022/09/14 05:19:17;;;;;;;5.30;2.33;;;13.40;99.90;;;;;;5114099;28;20036;-73
2022/09/14 05:21:43;;;;;;;6.65;2.28;;;13.40;99.90;;;;;;5111931;28;20051;-74
2022/09/14 05:24:17;;;;;;;5.78;2.15;;;13.40;99.90;;;;;;5113895;28;20071;-73
2022/09/14 05:26:44;;;;;;;4.13;2.00;;;13.40;99.90;;;;;;5112492;28;20047;-73
2022/09/14 05:29:16;;;;;;;4.18;2.08;;;13.40;99.90;;;;;;5100900;28;20039;-73
2022/09/14 05:31:42;;;;;;;6.50;2.10;;;13.40;99.90;;;;;;5113396;28;20043;-73
2022/09/14 05:34:09;;;;;;;5.88;2.28;;;13.50;99.90;;;;;;5108814;28;20047;-73
2022/09/14 05:36:36;;;;;;;4.60;2.03;;;13.40;99.90;;;;;;5123049;27;20373;-73
2022/09/14 05:39:02;;;;;;;7.40;2.50;;;13.40;99.90;;;;;;5105336;28;20499;-73
2022/09/14 05:41:27;;;;;;;3.22;1.90;;;13.50;99.90;;;;;;5111450;28;20080;-73
2022/09/14 05:43:53;;;;;;;5.43;1.70;;;13.40;99.90;;;;;;5106964;28;20039;-73
2022/09/14 05:46:19;;;;;;;5.97;2.00;;;13.40;99.90;;;;;;5125983;27;20055;-73
2022/09/14 05:48:45;;;;;;;4.90;1.90;;;13.50;99.90;;;;;;5094307;28;20042;-73
2022/09/14 05:51:15;;;;;;;5.88;1.70;;;13.50;99.90;;;;;;5094528;28;20044;-73
2022/09/14 05:53:45;;;;;;;2.83;1.63;;;13.50;99.90;;;;;;5101514;28;20051;-73
2022/09/14 05:56:13;;;;;;;3.30;1.40;;;13.60;99.90;;;;;;5114800;28;20040;-71
2022/09/14 05:58:39;;;;;;;4.82;2.20;;;13.60;99.90;;;;;;5118466;28;20035;-73
2022/09/14 06:01:08;;;;;;;4.63;2.10;;;13.70;99.90;;;;;;5112420;28;20032;-73
2022/09/14 06:03:33;;;;;;;6.68;2.28;;;13.80;99.90;;;;;;5107202;28;20074;-73
2022/09/14 06:05:59;;;;;;;4.03;1.70;;;13.80;99.90;;;;;;5093049;28;20087;-73
2022/09/14 06:08:25;;;;;;;6.47;1.67;;;13.80;99.90;;;;;;5092272;28;20052;-73
2022/09/14 06:10:50;;;;;;;5.70;2.33;;;13.80;99.90;;;;;;5103033;28;20507;-73
2022/09/14 06:13:16;;;;;;;5.63;1.98;;;13.90;99.90;;;;;;5133953;27;20047;-73
2022/09/14 06:15:41;;;;;;;5.43;2.10;;;13.90;99.90;;;;;;5134277;28;20035;-73
2022/09/14 06:18:07;;;;;;;5.38;2.05;;;13.90;99.90;;;;;;5134003;28;20499;-73
2022/09/14 06:20:33;;;;;;;5.45;2.10;;;13.90;99.90;;;;;;5091762;28;20048;-73
2022/09/14 06:22:59;;;;;;;6.93;2.25;;;13.90;99.90;;;;;;5093021;28;20044;-74
2022/09/14 06:25:25;;;;;;;8.32;2.47;;;14.00;99.90;;;;;;5105210;28;20410;-74
2022/09/14 06:27:54;;;;;;;5.05;2.05;;;14.10;99.90;;;;;;5113378;28;20044;-73
2022/09/14 06:30:22;;;;;;;3.97;2.15;;;14.10;99.90;;;;;;5094479;28;20066;-73
2022/09/14 06:32:48;;;;;;;5.78;2.40;;;14.10;99.90;;;;;;5095822;28;20036;-73
2022/09/14 06:35:14;;;;;;;5.00;2.30;;;14.10;99.90;;;;;;5097000;28;20062;-73
2022/09/14 06:37:39;;;;;;;4.65;2.35;;;14.10;99.90;;;;;;5096813;28;20091;-73
2022/09/14 06:40:05;;;;;;;5.80;2.55;;;14.20;99.90;;;;;;5096484;28;20036;-73
2022/09/14 06:42:31;;;;;;;7.70;2.63;;;14.10;99.90;;;;;;5096911;28;20046;-74
2022/09/14 06:44:56;;;;;;;7.10;2.38;;;14.20;99.90;;;;;;5111105;27;20118;-74
2022/09/14 06:47:22;;;;;;;8.18;2.40;;;14.20;99.90;;;;;;5110096;27;20093;-74
2022/09/14 06:49:49;;;;;;;5.43;1.80;;;14.20;99.90;;;;;;5106407;27;20067;-75
2022/09/14 06:52:15;;;;;;;7.70;2.35;;;14.30;99.90;;;;;;5114621;28;20055;-76
2022/09/14 06:54:40;;;;;;;3.95;2.15;;;14.40;99.90;;;;;;5107677;27;20046;-75
2022/09/14 06:57:06;;;;;;;6.25;2.20;;;14.40;99.90;;;;;;5115503;28;20040;-75
2022/09/14 06:59:32;;;;;;;5.88;2.65;;;14.40;99.90;;;;;;5117080;28;20039;-75
2022/09/14 07:01:57;;;;;;;5.55;2.60;;;14.50;99.90;;;;;;5116787;28;20061;-75
2022/09/14 07:04:23;;;;;;;5.53;2.28;;;14.50;99.90;;;;;;5101832;28;20408;-74
2022/09/14 07:06:49;;;;;;;8.15;2.72;;;14.60;99.90;;;;;;5095066;28;20044;-74
2022/09/14 07:09:16;;;;;;;6.60;3.00;;;14.60;99.90;;;;;;5096125;28;20031;-74
2022/09/14 07:11:42;;;;;;;5.50;3.40;;;14.70;99.90;;;;;;5096318;28;20040;-75
2022/09/14 07:14:09;;;;;;;11.90;3.25;;;14.70;99.90;;;;;;5096097;28;20040;-75
2022/09/14 07:16:36;;;;;;;9.85;3.25;;;14.70;99.90;;;;;;5115187;27;20074;-75
2022/09/14 07:19:04;;;;;;;5.60;2.80;;;14.80;99.90;;;;;;5108471;28;20488;-75
2022/09/14 07:21:31;;;;;;;10.02;3.20;;;14.80;99.90;;;;;;5094777;28;20040;-75
2022/09/14 07:23:57;;;;;;;7.55;2.80;;;14.80;99.90;;;;;;5096160;28;20044;-74
2022/09/14 07:26:29;;;;;;;6.88;3.10;;;14.90;99.90;;;;;;5111789;28;20036;-74
2022/09/14 07:29:03;;;;;;;5.45;2.45;;;15.00;99.90;;;;;;5095755;28;20396;-74
2022/09/14 07:31:31;;;;;;;6.07;2.33;;;15.10;99.90;;;;;;5095914;28;20040;-74
2022/09/14 07:34:00;;;;;;;5.10;2.40;;;15.20;99.90;;;;;;5095630;28;20093;-75
2022/09/14 07:36:27;;;;;;;7.43;2.95;;;15.20;99.90;;;;;;5094537;28;20092;-74
2022/09/14 07:38:53;;;;;;;5.85;2.30;;;15.30;99.90;;;;;;5109065;28;20059;-75
2022/09/14 07:41:25;;;;;;;4.60;2.38;;;15.40;99.90;;;;;;5114784;28;20062;-75
2022/09/14 07:43:58;;;;;;;5.85;2.70;;;15.50;99.90;;;;;;5114741;28;20067;-75
2022/09/14 07:46:24;;;;;;;5.93;2.55;;;15.50;99.90;;;;;;5115955;28;20039;-75
2022/09/14 07:48:55;;;;;;;6.90;2.60;;;15.60;99.90;;;;;;5106567;27;20560;-74
2022/09/14 07:51:21;;;;;;;6.60;2.40;;;15.70;99.90;;;;;;5095430;28;20484;-75
2022/09/14 07:53:46;;;;;;;6.57;2.75;;;15.70;99.90;;;;;;5095427;28;20047;-74
2022/09/14 07:56:15;;;;;;;7.88;2.42;;;15.70;99.90;;;;;;5095434;28;20028;-74
2022/09/14 07:58:41;;;;;;;6.53;2.10;;;15.80;99.90;;;;;;5095427;28;20040;-74
2022/09/14 08:01:12;;;;;;;8.93;2.20;;;15.90;99.90;;;;;;5095173;28;20036;-74
2022/09/14 08:03:40;;;;;;;5.78;2.13;;;15.90;99.90;;;;;;5109216;28;20117;-73
2022/09/14 08:06:14;;;;;;;4.82;1.95;;;16.00;99.90;;;;;;5114705;28;20422;-74
2022/09/14 08:08:42;;;;;;;4.30;1.50;;;16.00;99.90;;;;;;5115679;28;20031;-75
2022/09/14 08:11:12;;;;;;;3.42;1.70;;;16.10;99.90;;;;;;5114148;28;20546;-74
2022/09/14 08:13:40;;;;;;;5.28;2.08;;;16.10;99.90;;;;;;5110539;28;20039;-74
2022/09/14 08:16:05;;;;;;;6.57;1.73;;;16.10;99.90;;;;;;5112900;28;20035;-74
2022/09/14 08:18:34;;;;;;;6.93;1.48;;;16.10;99.90;;;;;;5115458;28;20040;-74
2022/09/14 08:21:09;;;;;;;5.45;1.20;;;16.30;99.90;;;;;;5115204;28;20506;-74
2022/09/14 08:23:35;;;;;;;4.13;1.00;;;16.30;99.90;;;;;;5113506;28;20492;-75
2022/09/14 08:26:06;;;;;;;3.03;0.90;;;16.30;99.90;;;;;;5106506;28;20040;-74
2022/09/14 08:28:32;;;;;;;4.90;0.70;;;16.30;99.90;;;;;;5094974;28;20040;-74
2022/09/14 08:31:06;;;;;;;3.92;0.70;;;16.30;99.90;;;;;;5094698;28;20047;-74
2022/09/14 08:33:34;;;;;;;4.07;1.45;;;16.40;99.90;;;;;;5111020;28;20557;-74
2022/09/14 08:36:00;;;;;;;3.72;1.13;;;16.50;99.90;;;;;;5113381;28;20115;-75
2022/09/14 08:38:26;;;;;;;6.28;1.08;;;16.50;99.90;;;;;;5096501;28;20111;-74
2022/09/14 08:40:52;;;;;;;5.47;1.00;;;16.50;99.90;;;;;;5114791;28;20088;-74
2022/09/14 08:43:20;;;;;;;3.20;0.68;;;16.50;99.90;;;;;;5098205;28;20118;-74
2022/09/14 08:45:47;;;;;;;6.28;0.90;;;16.50;99.90;;;;;;5094008;28;20040;-74
2022/09/14 08:48:25;;;;;;;3.38;0.82;;;16.60;99.90;;;;;;5104098;28;20086;-75
2022/09/14 08:50:52;;;;;;;4.53;1.38;;;16.60;99.90;;;;;;5094295;28;20486;-74
2022/09/14 08:53:23;;;;;;;3.42;0.80;;;16.60;99.90;;;;;;5100106;28;20062;-74
2022/09/14 08:55:56;;;;;;;4.10;0.80;;;16.70;99.90;;;;;;5093857;28;20400;-74
2022/09/14 08:58:34;;;;;;;5.03;0.77;;;16.70;99.90;;;;;;5094306;28;20047;-74
2022/09/14 09:01:34;;;;;;;9.27;1.25;;;16.70;99.90;;;;;;5096013;28;20534;-74
2022/09/14 09:04:28;;;;;;;4.40;1.00;;;16.80;99.90;;;;;;5105480;28;20127;-74
2022/09/14 09:07:27;;;;;;;4.03;0.77;;;17.00;99.90;;;;;;5096394;28;20466;-74
2022/09/14 09:09:55;;;;;;;6.07;1.08;;;17.10;99.90;;;;;;5114247;28;20059;-74
2022/09/14 09:12:26;;;;;;;5.68;1.20;;;17.10;99.90;;;;;;5112002;28;20069;-74
2022/09/14 09:14:55;;;;;;;6.93;1.30;;;17.10;99.90;;;;;;5094346;28;20040;-74
2022/09/14 09:17:28;;;;;;;5.65;1.00;;;17.20;99.90;;;;;;5126944;27;20031;-74
2022/09/14 09:20:22;;;;;;;6.28;1.10;;;17.30;99.90;;;;;;5101134;28;20036;-74
2022/09/14 09:23:03;;;;;;;5.15;1.35;;;17.50;99.90;;;;;;5090408;28;20516;-74
2022/09/14 09:25:43;;;;;;;5.80;1.00;;;17.50;99.90;;;;;;5100796;28;20054;-74
2022/09/14 09:28:11;;;;;;;7.72;1.05;;;17.60;99.90;;;;;;5106881;28;20475;-74
2022/09/14 09:30:39;;;;;;;7.60;1.17;;;17.70;99.90;;;;;;5113990;28;20377;-74
2022/09/14 09:33:04;;;;;;;6.85;1.30;;;17.80;99.90;;;;;;5113096;28;20123;-74
2022/09/14 09:35:32;;;;;;;6.60;1.65;;;17.80;99.90;;;;;;5106435;28;20107;-74
2022/09/14 09:37:57;;;;;;;8.95;1.40;;;17.90;99.90;;;;;;5093643;28;20036;-74
2022/09/14 09:40:34;;;;;;;4.78;1.10;;;17.90;99.90;;;;;;5101752;28;20032;-74
2022/09/14 09:43:06;;;;;;;7.82;1.45;;;17.90;99.90;;;;;;5111432;28;20028;-74
2022/09/14 09:45:55;;;;;;;9.65;1.40;;;18.00;99.90;;;;;;5107174;28;20047;-74
2022/09/14 09:48:28;;;;;;;5.55;1.00;;;18.00;99.90;;;;;;5093592;28;20044;-74
2022/09/14 09:51:13;;;;;;;7.55;1.58;;;17.90;99.90;;;;;;5093471;28;20044;-74
2022/09/14 09:53:50;;;;;;;6.25;1.10;;;18.00;99.90;;;;;;5119632;28;20135;-74
2022/09/14 09:56:18;;;;;;;4.32;0.90;;;18.00;99.90;;;;;;5125920;27;20040;-74
2022/09/14 09:58:45;;;;;;;5.57;0.88;;;18.00;99.90;;;;;;5093309;28;20483;-74
2022/09/14 10:01:20;;;;;;;6.55;1.00;;;18.10;99.90;;;;;;5093311;28;20072;-74
2022/09/14 10:03:59;;;;;;;8.65;1.17;;;18.20;99.90;;;;;;5125274;28;20548;-73
2022/09/14 10:06:24;;;;;;;4.13;0.90;;;18.30;99.90;;;;;;5105106;28;20127;-83
2022/09/14 10:08:52;;;;;;;7.65;1.13;;;18.30;99.90;;;;;;5095362;28;20146;-74
2022/09/14 10:11:31;;;;;;;8.55;1.13;;;18.30;99.90;;;;;;5112108;27;20115;-73
2022/09/14 10:13:57;;;;;;;5.93;1.30;;;18.30;99.90;;;;;;5116646;28;20126;-73
2022/09/14 10:16:28;;;;;;;5.15;1.10;;;18.30;99.90;;;;;;5116695;28;20054;-74
2022/09/14 10:18:54;;;;;;;6.53;1.50;;;18.40;99.90;;;;;;5117896;28;20039;-74
2022/09/14 10:21:22;;;;;;;5.53;1.40;;;18.40;99.90;;;;;;5099862;28;20036;-74
2022/09/14 10:24:14;;;;;;;6.32;1.10;;;18.40;99.90;;;;;;5112927;27;20088;-73
2022/09/14 10:26:40;;;;;;;6.90;1.10;;;18.40;99.90;;;;;;5136886;27;20027;-73
2022/09/14 10:29:27;;;;;;;6.40;1.13;;;18.40;99.90;;;;;;5137975;27;20487;-74
2022/09/14 10:31:59;;;;;;;6.22;0.88;;;18.50;99.90;;;;;;5117859;27;20389;-73
2022/09/14 10:34:25;;;;;;;5.72;1.10;;;18.50;99.90;;;;;;5082440;28;20125;-74
2022/09/14 10:37:15;;;;;;;4.90;0.98;;;18.50;99.90;;;;;;5115249;27;20075;-74
2022/09/14 10:40:14;;;;;;;5.88;1.52;;;18.60;99.90;;;;;;5074863;27;20054;-73
2022/09/14 10:42:50;;;;;;;4.18;0.90;;;18.70;99.90;;;;;;5085474;28;20408;-73
2022/09/14 10:45:30;;;;;;;6.28;1.42;;;18.70;99.90;;;;;;5135306;27;20043;-73
2022/09/14 10:48:05;;;;;;;5.45;1.10;;;18.80;99.90;;;;;;5112856;27;20553;-73
2022/09/14 10:51:00;;;;;;;5.00;1.08;;;18.90;99.90;;;;;;5131642;27;20048;-73
2022/09/14 10:54:16;;;;;;;5.88;1.05;;;19.10;99.90;;;;;;5116792;28;20043;-73
2022/09/14 10:56:54;;;;;;;6.13;1.02;;;19.20;99.90;;;;;;5024031;28;20040;-73
2022/09/14 10:59:30;;;;;;;4.80;0.90;;;19.20;99.90;;;;;;5095611;28;20042;-73
2022/09/14 11:03:03;;;;;;;4.93;1.10;;;19.10;99.90;;;;;;5116459;28;20039;-73
2022/09/14 11:05:46;;;;;;;5.95;1.10;;;19.10;99.90;;;;;;5015709;28;20041;-73
2022/09/14 11:08:21;;;;;;;5.60;1.05;;;19.10;99.90;;;;;;5093583;28;20039;-73
2022/09/14 11:11:03;;;;;;;4.47;0.80;;;19.10;99.90;;;;;;5113449;28;20488;-73
2022/09/14 11:13:35;;;;;;;4.65;1.20;;;19.00;99.90;;;;;;5113858;28;20039;-73
2022/09/14 11:16:06;;;;;;;4.25;0.90;;;19.00;99.90;;;;;;5116298;28;20183;-73
2022/09/14 11:19:03;;;;;;;2.67;0.90;;;19.10;99.90;;;;;;5115466;28;20555;-73
2022/09/14 11:21:55;;;;;;;4.07;0.80;;;19.20;99.90;;;;;;5116189;28;20036;-73
2022/09/14 11:24:24;;;;;;;4.25;1.20;;;19.10;99.90;;;;;;5115132;28;20186;-73
2022/09/14 11:27:14;;;;;;;4.60;1.00;;;19.20;99.90;;;;;;5115132;27;20039;-73
2022/09/14 11:29:47;;;;;;;3.55;1.00;;;19.10;99.90;;;;;;5115501;28;20439;-73
2022/09/14 11:32:20;;;;;;;4.03;0.95;;;19.10;99.90;;;;;;5115444;28;20055;-73
2022/09/14 11:34:56;;;;;;;6.22;0.85;;;19.00;99.90;;;;;;5115597;28;20067;-73
2022/09/14 11:37:51;;;;;;;5.47;0.90;;;19.00;99.90;;;;;;5116040;28;20078;-73
2022/09/14 11:40:46;;;;;;;5.35;1.00;;;18.90;99.90;;;;;;5113842;28;20079;-73
2022/09/14 11:43:19;;;;;;;4.78;0.90;;;18.80;99.90;;;;;;5084439;28;20051;-73
2022/09/14 11:45:47;;;;;;;6.28;1.13;;;18.70;99.90;;;;;;5114982;28;20039;-73
2022/09/14 11:48:16;;;;;;;5.72;1.02;;;18.70;99.90;;;;;;5114189;28;20044;-73
2022/09/14 11:50:44;;;;;;;5.47;1.25;;;18.70;99.90;;;;;;5110981;28;20047;-73
2022/09/14 11:53:14;;;;;;;6.47;0.80;;;18.70;99.90;;;;;;5114267;28;20463;-73
2022/09/14 11:55:46;;;;;;;4.88;1.23;;;18.70;99.90;;;;;;5095187;28;20031;-73
2022/09/14 11:58:21;;;;;;;4.65;0.90;;;18.70;99.90;;;;;;5100225;28;20051;-73
2022/09/14 12:01:25;;;;;;;5.95;1.15;;;18.80;99.90;;;;;;5110721;28;20118;-73
2022/09/14 12:03:58;;;;;;;5.45;0.90;;;18.80;99.90;;;;;;5092741;28;20032;-73
2022/09/14 12:06:30;;;;;;;9.30;1.20;;;18.90;99.90;;;;;;5099041;28;20048;-73
2022/09/14 12:09:21;;;;;;;5.97;1.13;;;18.80;99.90;;;;;;5111622;28;20092;-73
2022/09/14 12:11:57;;;;;;;5.25;1.15;;;18.90;99.90;;;;;;5101188;28;20514;-74
2022/09/14 12:14:33;;;;;;;7.28;1.20;;;18.90;99.90;;;;;;5114819;28;20047;-73
2022/09/14 12:17:14;;;;;;;5.28;1.13;;;18.90;99.90;;;;;;5108219;27;20036;-73
2022/09/14 12:19:41;;;;;;;6.83;1.20;;;18.80;99.90;;;;;;5108758;28;20035;-73
2022/09/14 12:22:28;;;;;;;7.35;1.30;;;18.70;99.90;;;;;;5113847;28;20035;-73
2022/09/14 12:24:58;;;;;;;7.60;1.20;;;18.80;99.90;;;;;;5105184;28;20484;-73
2022/09/14 12:27:23;;;;;;;5.22;1.10;;;18.70;99.90;;;;;;5094968;28;20036;-73
2022/09/14 12:29:49;;;;;;;7.07;1.35;;;18.70;99.90;;;;;;5093954;28;20483;-73
2022/09/14 12:32:27;;;;;;;10.05;1.45;;;18.70;99.90;;;;;;5102698;28;20070;-73
2022/09/14 12:35:31;;;;;;;7.13;1.27;;;18.70;99.90;;;;;;5099474;28;20078;-73
2022/09/14 12:37:56;;;;;;;6.60;1.20;;;18.70;99.90;;;;;;5108006;28;20127;-73
2022/09/14 12:40:35;;;;;;;5.10;1.30;;;18.80;99.90;;;;;;5114873;28;20111;-73
2022/09/14 12:43:31;;;;;;;4.72;0.98;;;18.90;99.90;;;;;;5112511;28;20058;-73
2022/09/14 12:46:18;;;;;;;5.38;1.02;;;18.90;99.90;;;;;;5113193;28;20120;-73
2022/09/14 12:48:46;;;;;;;4.60;1.15;;;19.00;99.90;;;;;;5114995;28;20399;-73
2022/09/14 12:51:30;;;;;;;6.85;1.10;;;19.00;99.90;;;;;;5110836;27;20044;-73
2022/09/14 12:54:08;;;;;;;7.10;1.13;;;19.10;99.90;;;;;;5093493;28;21415;-73
2022/09/14 12:56:42;;;;;;;6.75;1.00;;;19.20;99.90;;;;;;5125767;27;20040;-73
2022/09/14 12:59:32;;;;;;;5.95;1.00;;;19.10;99.90;;;;;;5113969;28;20043;-73
2022/09/14 13:02:09;;;;;;;5.25;0.95;;;19.10;99.90;;;;;;5105280;28;20035;-73
2022/09/14 13:04:39;;;;;;;5.63;1.30;;;19.10;99.90;;;;;;5113958;28;20059;-73
2022/09/14 13:07:12;;;;;;;6.85;1.25;;;19.20;99.90;;;;;;5094429;28;20071;-73
2022/09/14 13:09:48;;;;;;;6.40;1.05;;;19.30;99.90;;;;;;5102827;28;20468;-73
2022/09/14 13:12:21;;;;;;;9.07;1.40;;;19.30;99.90;;;;;;5112380;28;20039;-73